Time;durP1;ratioP1;P1;durP2;ratioP2;P2;SDS_P1;SDS_P2;PMS_P1;PMS_P2;Temp;Humidity;BMP_temperature;BMP_pressure;BME280_temperature;BME280_humidity;BME280_pressure;Samples;Min_cycle;Max_cycle;Signal;HPM_P1;HPM_P2
2022/09/21 00:01:46;;;;;;;10.20;9.10;;;6.50;99.90;;;;;;5050342;28;20551;-65
2022/09/21 00:04:13;;;;;;;10.47;9.37;;;6.60;99.90;;;;;;5037547;28;20480;-66
2022/09/21 00:06:40;;;;;;;11.47;10.10;;;6.60;99.90;;;;;;5032065;28;20444;-67
2022/09/21 00:09:08;;;;;;;12.03;10.00;;;6.70;99.90;;;;;;5033068;28;20440;-66
2022/09/21 00:11:36;;;;;;;13.10;10.47;;;6.60;99.90;;;;;;5033081;28;20445;-66
2022/09/21 00:14:06;;;;;;;14.40;9.23;;;6.60;99.90;;;;;;5032779;28;20832;-68
2022/09/21 00:16:33;;;;;;;10.00;9.00;;;6.50;99.90;;;;;;5033014;28;21020;-67
2022/09/21 00:19:00;;;;;;;9.60;8.60;;;6.40;99.90;;;;;;5033128;28;20510;-67
2022/09/21 00:21:28;;;;;;;12.90;8.63;;;6.50;99.90;;;;;;5032979;28;20449;-67
2022/09/21 00:23:55;;;;;;;9.83;8.83;;;6.40;99.90;;;;;;5032565;28;20472;-64
2022/09/21 00:26:25;;;;;;;9.43;8.43;;;6.40;99.90;;;;;;5033200;28;20778;-66
2022/09/21 00:28:54;;;;;;;10.30;9.30;;;6.40;99.90;;;;;;5032691;28;20938;-66
2022/09/21 00:31:21;;;;;;;10.00;8.50;;;6.50;99.90;;;;;;5032856;28;20453;-64
2022/09/21 00:33:49;;;;;;;12.17;8.63;;;6.40;99.90;;;;;;5032474;28;20832;-66
2022/09/21 00:36:19;;;;;;;9.60;8.60;;;6.50;99.90;;;;;;5032734;28;20477;-66
2022/09/21 00:38:48;;;;;;;11.50;8.90;;;6.50;99.90;;;;;;5032732;28;20448;-65
2022/09/21 00:41:15;;;;;;;13.50;8.80;;;6.50;99.90;;;;;;5032486;28;20449;-66
2022/09/21 00:43:47;;;;;;;16.20;9.40;;;6.40;99.90;;;;;;5032120;28;20468;-66
2022/09/21 00:46:20;;;;;;;12.23;9.10;;;6.40;99.90;;;;;;5032093;28;20447;-66
2022/09/21 00:48:47;;;;;;;13.50;8.47;;;6.30;99.90;;;;;;5030851;28;20452;-67
2022/09/21 00:51:14;;;;;;;12.67;9.80;;;6.30;99.90;;;;;;5031785;28;20460;-66
2022/09/21 00:53:41;;;;;;;9.53;8.53;;;6.20;99.90;;;;;;5031814;28;21022;-66
2022/09/21 00:56:10;;;;;;;11.67;8.87;;;6.20;99.90;;;;;;5031275;28;20481;-66
2022/09/21 00:58:41;;;;;;;12.63;9.40;;;6.10;99.90;;;;;;5031974;28;20448;-66
2022/09/21 01:01:11;;;;;;;15.60;10.33;;;6.00;99.90;;;;;;5032224;28;20445;-66
2022/09/21 01:03:42;;;;;;;9.90;8.90;;;6.00;99.90;;;;;;5032531;28;20499;-66
2022/09/21 01:06:09;;;;;;;11.70;9.90;;;6.00;99.90;;;;;;5031954;28;20811;-67
2022/09/21 01:08:36;;;;;;;10.90;9.00;;;6.00;99.90;;;;;;5032193;28;20460;-67
2022/09/21 01:11:19;;;;;;;15.87;9.00;;;6.00;99.90;;;;;;5031949;28;20449;-68
2022/09/21 01:14:01;;;;;;;13.77;9.10;;;6.00;99.90;;;;;;5031464;28;20488;-66
2022/09/21 01:16:34;;;;;;;11.03;9.17;;;5.90;99.90;;;;;;5031893;28;20501;-66
2022/09/21 01:19:14;;;;;;;10.73;9.63;;;5.90;99.90;;;;;;5032090;28;20461;-68
2022/09/21 01:21:52;;;;;;;13.37;9.03;;;5.80;99.90;;;;;;5031712;28;20445;-65
2022/09/21 01:24:32;;;;;;;11.60;9.20;;;5.80;99.90;;;;;;5031876;28;20832;-65
2022/09/21 01:27:31;;;;;;;12.03;8.90;;;5.80;99.90;;;;;;5031360;28;20456;-65
2022/09/21 01:30:02;;;;;;;11.47;9.17;;;5.80;99.90;;;;;;5029207;28;20757;-66
2022/09/21 01:32:34;;;;;;;12.80;10.20;;;5.80;99.90;;;;;;5031729;28;20504;-64
2022/09/21 01:35:05;;;;;;;14.30;9.40;;;5.70;99.90;;;;;;5032004;28;20443;-66
2022/09/21 01:37:37;;;;;;;13.77;9.43;;;5.80;99.90;;;;;;5031684;28;20562;-66
2022/09/21 01:40:09;;;;;;;10.13;9.13;;;5.90;99.90;;;;;;5032286;28;20452;-68
2022/09/21 01:42:39;;;;;;;11.43;10.27;;;5.80;99.90;;;;;;5031958;28;20468;-68
2022/09/21 01:45:09;;;;;;;20.37;10.70;;;5.80;99.90;;;;;;5032243;28;20446;-66
2022/09/21 01:47:37;;;;;;;10.20;9.10;;;5.80;99.90;;;;;;5031525;28;20440;-66
2022/09/21 01:50:08;;;;;;;14.57;10.60;;;5.70;99.90;;;;;;5031367;28;20756;-66
2022/09/21 01:52:39;;;;;;;15.00;10.10;;;5.70;99.90;;;;;;5030725;28;20983;-67
2022/09/21 01:55:11;;;;;;;12.70;10.53;;;5.70;99.90;;;;;;5031167;28;20818;-65
2022/09/21 01:57:43;;;;;;;14.13;9.40;;;5.60;99.90;;;;;;5030092;28;20473;-65
2022/09/21 02:00:13;;;;;;;11.40;9.50;;;5.60;99.90;;;;;;5031097;28;20460;-66
2022/09/21 02:02:47;;;;;;;13.90;10.07;;;5.70;99.90;;;;;;5031948;28;20465;-67
2022/09/21 02:05:18;;;;;;;12.43;9.73;;;5.70;99.90;;;;;;5031164;28;20456;-67
2022/09/21 02:07:46;;;;;;;12.30;9.90;;;5.70;99.90;;;;;;5030876;28;20498;-65
2022/09/21 02:10:19;;;;;;;11.93;10.30;;;5.80;99.90;;;;;;5031341;28;20449;-67
2022/09/21 02:12:46;;;;;;;13.60;10.40;;;5.80;99.90;;;;;;5030563;28;20922;-67
2022/09/21 02:15:15;;;;;;;11.63;10.00;;;5.70;99.90;;;;;;5030669;28;20460;-68
2022/09/21 02:17:53;;;;;;;15.20;9.70;;;5.70;99.90;;;;;;5030845;28;20946;-67
2022/09/21 02:20:26;;;;;;;14.43;11.73;;;5.70;99.90;;;;;;5030827;28;20452;-67
2022/09/21 02:23:03;;;;;;;11.40;9.10;;;5.80;99.90;;;;;;5030074;28;20472;-66
2022/09/21 02:25:40;;;;;;;12.70;10.87;;;5.80;99.90;;;;;;5030414;28;20436;-66
2022/09/21 02:28:13;;;;;;;12.07;10.37;;;5.70;99.90;;;;;;5030697;28;20873;-65
2022/09/21 02:30:47;;;;;;;12.60;10.00;;;5.70;99.90;;;;;;5030630;28;20448;-66
2022/09/21 02:33:24;;;;;;;11.17;10.00;;;5.70;99.90;;;;;;5030125;28;20496;-66
2022/09/21 02:35:58;;;;;;;9.80;8.80;;;5.70;99.90;;;;;;5030675;28;20444;-66
2022/09/21 02:38:34;;;;;;;11.87;9.57;;;5.80;99.90;;;;;;5030548;28;20489;-66
2022/09/21 02:41:07;;;;;;;10.17;9.03;;;5.70;99.90;;;;;;5030341;28;20460;-65
2022/09/21 02:43:39;;;;;;;11.60;9.27;;;5.60;99.90;;;;;;5029882;28;20998;-67
2022/09/21 02:46:13;;;;;;;9.63;8.60;;;5.70;99.90;;;;;;5030119;28;20448;-66
2022/09/21 02:48:46;;;;;;;12.23;8.77;;;5.60;99.90;;;;;;5030011;28;20445;-66
2022/09/21 02:51:17;;;;;;;9.87;8.60;;;5.50;99.90;;;;;;5030093;28;20445;-67
2022/09/21 02:53:46;;;;;;;9.43;8.47;;;5.30;99.90;;;;;;5029627;28;20475;-68
2022/09/21 02:56:14;;;;;;;9.67;8.67;;;5.30;99.90;;;;;;5030011;28;20449;-67
2022/09/21 02:58:47;;;;;;;12.03;9.30;;;5.30;99.90;;;;;;5030145;28;20528;-67
2022/09/21 03:01:17;;;;;;;11.83;8.20;;;5.20;99.90;;;;;;5029946;28;20474;-69
2022/09/21 03:03:44;;;;;;;10.87;8.77;;;5.20;99.90;;;;;;5029648;28;20840;-68
2022/09/21 03:06:10;;;;;;;11.77;8.90;;;5.20;99.90;;;;;;5030066;28;20441;-67
2022/09/21 03:08:37;;;;;;;11.87;9.27;;;5.20;99.90;;;;;;5029564;28;20447;-67
2022/09/21 03:11:05;;;;;;;10.97;9.27;;;5.20;99.90;;;;;;5030280;28;20812;-67
2022/09/21 03:13:32;;;;;;;13.43;9.70;;;5.20;99.90;;;;;;5029779;28;20465;-68
2022/09/21 03:16:00;;;;;;;13.57;10.63;;;5.20;99.90;;;;;;5030047;28;20448;-67
2022/09/21 03:18:28;;;;;;;12.97;9.40;;;5.20;99.90;;;;;;5029833;28;20485;-66
2022/09/21 03:20:55;;;;;;;11.37;8.20;;;5.20;99.90;;;;;;5030200;28;20460;-65
2022/09/21 03:23:22;;;;;;;13.00;10.17;;;5.10;99.90;;;;;;5029352;28;20479;-66
2022/09/21 03:25:51;;;;;;;12.70;10.63;;;5.20;99.90;;;;;;5029868;28;20452;-68
2022/09/21 03:28:19;;;;;;;11.03;8.60;;;5.30;99.90;;;;;;5029844;28;20986;-66
2022/09/21 03:30:46;;;;;;;10.87;9.03;;;5.20;99.90;;;;;;5030048;28;20449;-66
2022/09/21 03:33:13;;;;;;;11.70;8.70;;;5.10;99.90;;;;;;5029987;28;20805;-65
2022/09/21 03:35:41;;;;;;;12.80;10.33;;;5.10;99.90;;;;;;5030210;28;20453;-66
2022/09/21 03:38:08;;;;;;;12.80;9.70;;;5.10;99.90;;;;;;5029624;28;20491;-66
2022/09/21 03:40:35;;;;;;;12.50;10.43;;;5.10;99.90;;;;;;5029680;28;20452;-65
2022/09/21 03:43:02;;;;;;;11.30;8.70;;;5.10;99.90;;;;;;5029550;28;20472;-66
2022/09/21 03:45:29;;;;;;;10.67;8.60;;;5.20;99.90;;;;;;5029942;28;20452;-66
2022/09/21 03:47:57;;;;;;;10.23;8.43;;;5.10;99.90;;;;;;5029616;28;20453;-67
2022/09/21 03:50:24;;;;;;;11.30;9.27;;;5.00;99.90;;;;;;5029563;28;20452;-65
2022/09/21 03:52:52;;;;;;;10.37;9.27;;;5.00;99.90;;;;;;5028963;28;21008;-64
2022/09/21 03:55:19;;;;;;;11.10;8.33;;;5.00;99.90;;;;;;5029745;28;20461;-66
2022/09/21 03:57:45;;;;;;;12.97;9.00;;;4.90;99.90;;;;;;5029580;28;20870;-64
2022/09/21 04:00:13;;;;;;;9.57;8.63;;;4.90;99.90;;;;;;5029586;28;20436;-66
2022/09/21 04:02:40;;;;;;;13.40;9.73;;;5.00;99.90;;;;;;5029315;28;20464;-66
2022/09/21 04:05:08;;;;;;;10.93;9.20;;;4.90;99.90;;;;;;5029345;28;20441;-66
2022/09/21 04:07:36;;;;;;;10.40;8.70;;;4.90;99.90;;;;;;5029537;28;20445;-66
2022/09/21 04:10:07;;;;;;;9.40;8.47;;;4.90;99.90;;;;;;5029612;28;20445;-65
2022/09/21 04:12:35;;;;;;;12.20;9.40;;;4.90;99.90;;;;;;5029201;28;20472;-66
2022/09/21 04:15:03;;;;;;;12.03;10.13;;;5.00;99.90;;;;;;5029315;28;20464;-66
2022/09/21 04:17:30;;;;;;;11.50;8.70;;;5.00;99.90;;;;;;5029122;28;20484;-66
2022/09/21 04:19:57;;;;;;;11.50;8.70;;;5.00;99.90;;;;;;5029160;28;20457;-66
2022/09/21 04:22:24;;;;;;;13.53;9.03;;;5.00;99.90;;;;;;5032669;28;20468;-66
2022/09/21 04:24:51;;;;;;;10.67;8.03;;;4.90;99.90;;;;;;5032981;28;20459;-65
2022/09/21 04:27:19;;;;;;;10.87;8.73;;;4.80;99.90;;;;;;5032901;28;20452;-66
2022/09/21 04:29:46;;;;;;;12.80;8.50;;;4.90;99.90;;;;;;5033005;28;20456;-67
2022/09/21 04:32:13;;;;;;;10.70;8.33;;;4.90;99.90;;;;;;5032610;28;20449;-65
2022/09/21 04:34:39;;;;;;;12.83;8.47;;;5.00;99.90;;;;;;5033137;28;20762;-67
2022/09/21 04:37:07;;;;;;;10.70;8.60;;;4.90;99.90;;;;;;5032803;28;20460;-67
2022/09/21 04:39:34;;;;;;;10.50;8.90;;;5.00;99.90;;;;;;5032778;28;20551;-67
2022/09/21 04:42:01;;;;;;;12.23;9.17;;;4.90;99.90;;;;;;5033928;28;20452;-73
2022/09/21 04:44:30;;;;;;;11.50;9.20;;;4.90;99.90;;;;;;5036323;28;20449;-69
2022/09/21 04:46:57;;;;;;;10.77;8.83;;;4.80;99.90;;;;;;5032490;28;20444;-65
2022/09/21 04:49:24;;;;;;;11.00;8.43;;;4.90;99.90;;;;;;5032652;28;20460;-67
2022/09/21 04:51:51;;;;;;;12.40;8.40;;;5.00;99.90;;;;;;5032189;28;20515;-67
2022/09/21 04:54:17;;;;;;;10.87;9.37;;;5.00;99.90;;;;;;5032348;28;20990;-67
2022/09/21 04:56:44;;;;;;;11.13;8.20;;;4.80;99.90;;;;;;5032430;28;20455;-66
2022/09/21 04:59:11;;;;;;;13.50;7.70;;;4.80;99.90;;;;;;5032509;28;20481;-66
2022/09/21 05:01:39;;;;;;;12.00;8.77;;;4.70;99.90;;;;;;5032211;28;20449;-66
2022/09/21 05:04:06;;;;;;;10.57;7.83;;;4.70;99.90;;;;;;5030612;28;20469;-67
2022/09/21 05:06:34;;;;;;;13.37;9.43;;;4.70;99.90;;;;;;5032849;28;20463;-66
2022/09/21 05:11:45;;;;;;;9.97;8.40;;;4.80;99.90;;;;;;5029764;28;20463;-67
2022/09/21 05:14:13;;;;;;;14.23;8.97;;;4.80;99.90;;;;;;5031446;28;20479;-66
2022/09/21 05:16:41;;;;;;;13.23;10.07;;;4.70;99.90;;;;;;5025968;28;20461;-68
2022/09/21 05:19:07;;;;;;;10.50;8.67;;;4.60;99.90;;;;;;5046798;28;20476;-66
2022/09/21 05:21:35;;;;;;;11.20;8.83;;;4.60;99.90;;;;;;5043471;28;20544;-67
2022/09/21 05:24:02;;;;;;;9.53;8.00;;;4.70;99.90;;;;;;5031282;28;20519;-67
2022/09/21 05:26:29;;;;;;;12.27;9.17;;;4.80;99.90;;;;;;5031441;28;20444;-66
2022/09/21 05:28:56;;;;;;;11.57;9.17;;;4.80;99.90;;;;;;5031053;28;20449;-65
2022/09/21 05:31:35;;;;;;;13.83;9.17;;;4.80;99.90;;;;;;5030958;28;20452;-67
2022/09/21 05:34:12;;;;;;;14.43;9.80;;;4.70;99.90;;;;;;5044999;28;20464;-68
2022/09/21 05:36:49;;;;;;;16.50;9.23;;;4.60;99.90;;;;;;5031292;28;20460;-67
2022/09/21 05:39:16;;;;;;;9.87;8.37;;;4.60;99.90;;;;;;5031666;28;20479;-67
2022/09/21 05:41:43;;;;;;;11.33;8.40;;;4.70;99.90;;;;;;5030750;28;20460;-67
2022/09/21 05:44:13;;;;;;;9.90;8.40;;;4.70;99.90;;;;;;5031481;28;20473;-65
2022/09/21 05:46:42;;;;;;;11.57;7.50;;;4.80;99.90;;;;;;5031599;28;20459;-65
2022/09/21 05:49:18;;;;;;;11.77;8.60;;;4.80;99.90;;;;;;5030793;28;20445;-65
2022/09/21 05:51:55;;;;;;;10.37;7.47;;;4.90;99.90;;;;;;5031234;28;20448;-68
2022/09/21 05:54:33;;;;;;;8.20;7.30;;;5.00;99.90;;;;;;5031548;28;20856;-63
2022/09/21 05:57:05;;;;;;;11.10;7.60;;;5.00;99.90;;;;;;5031377;28;20445;-65
2022/09/21 05:59:58;;;;;;;10.47;8.13;;;5.00;99.90;;;;;;5031035;28;20480;-66
2022/09/21 06:02:43;;;;;;;9.67;8.00;;;5.10;99.90;;;;;;5030785;28;20691;-66
2022/09/21 06:05:13;;;;;;;11.23;8.70;;;5.00;99.90;;;;;;5031237;28;20449;-67
2022/09/21 06:07:41;;;;;;;10.90;9.30;;;5.00;99.90;;;;;;5030920;28;20445;-66
2022/09/21 06:10:09;;;;;;;10.90;9.23;;;5.00;99.90;;;;;;5030855;28;20453;-67
2022/09/21 06:12:36;;;;;;;10.63;8.83;;;5.10;99.90;;;;;;5030422;28;20469;-67
2022/09/21 06:15:03;;;;;;;12.00;8.63;;;5.30;99.90;;;;;;5030211;28;20928;-66
2022/09/21 06:17:30;;;;;;;11.07;9.33;;;5.30;99.90;;;;;;5030828;28;20946;-65
2022/09/21 06:19:57;;;;;;;10.23;8.73;;;5.30;99.90;;;;;;5030654;28;20448;-66
2022/09/21 06:22:25;;;;;;;9.30;8.37;;;5.50;99.90;;;;;;5030365;28;20472;-67
2022/09/21 06:24:52;;;;;;;11.77;9.40;;;5.60;99.90;;;;;;5030579;28;20453;-66
2022/09/21 06:27:18;;;;;;;10.70;8.80;;;5.70;99.90;;;;;;5031096;28;20818;-66
2022/09/21 06:29:45;;;;;;;9.40;8.50;;;5.80;99.90;;;;;;5030632;28;20935;-66
2022/09/21 06:32:12;;;;;;;13.20;9.07;;;5.90;99.90;;;;;;5030507;28;20456;-67
2022/09/21 06:34:39;;;;;;;10.93;9.00;;;6.00;99.90;;;;;;5030533;28;20532;-67
2022/09/21 06:37:06;;;;;;;14.27;10.17;;;6.10;99.90;;;;;;5030557;28;20445;-67
2022/09/21 06:39:34;;;;;;;12.23;9.93;;;6.00;99.90;;;;;;5030296;28;20507;-66
2022/09/21 06:42:00;;;;;;;10.17;8.90;;;6.20;99.90;;;;;;5030234;28;20452;-66
2022/09/21 06:44:28;;;;;;;10.97;9.57;;;6.30;99.90;;;;;;5029993;28;20821;-67
2022/09/21 06:46:55;;;;;;;12.70;9.50;;;6.40;99.90;;;;;;5030488;28;20445;-66
2022/09/21 06:49:22;;;;;;;11.80;10.60;;;6.40;99.90;;;;;;5030093;28;20453;-66
2022/09/21 06:51:49;;;;;;;12.27;10.73;;;6.50;99.90;;;;;;5029913;28;20459;-67
2022/09/21 06:54:16;;;;;;;11.70;10.30;;;6.50;99.90;;;;;;5030163;28;20480;-66
2022/09/21 06:56:44;;;;;;;12.33;11.00;;;6.60;99.90;;;;;;5030466;28;20456;-64
2022/09/21 06:59:11;;;;;;;12.67;10.67;;;6.80;99.90;;;;;;5030910;28;20485;-66
2022/09/21 07:01:38;;;;;;;19.23;12.13;;;6.80;99.90;;;;;;5030924;28;20857;-67
2022/09/21 07:04:05;;;;;;;15.00;11.50;;;6.80;99.90;;;;;;5030752;28;20472;-68
2022/09/21 07:06:32;;;;;;;14.43;12.53;;;6.80;99.90;;;;;;5030157;28;20445;-66
2022/09/21 07:08:59;;;;;;;16.27;12.00;;;6.90;99.90;;;;;;5030330;28;20452;-68
2022/09/21 07:11:26;;;;;;;18.13;12.33;;;6.90;99.90;;;;;;5030209;28;20445;-68
2022/09/21 07:13:54;;;;;;;16.50;11.87;;;7.00;99.90;;;;;;5029878;28;20477;-67
2022/09/21 07:16:22;;;;;;;14.13;11.67;;;7.10;99.90;;;;;;5030297;28;20456;-67
2022/09/21 07:18:48;;;;;;;13.97;11.97;;;7.20;99.90;;;;;;5029758;28;20481;-68
2022/09/21 07:21:15;;;;;;;12.80;11.07;;;7.40;99.90;;;;;;5029817;28;20452;-67
2022/09/21 07:23:42;;;;;;;14.20;10.80;;;7.50;99.90;;;;;;5029849;28;20469;-66
2022/09/21 07:26:12;;;;;;;13.23;11.60;;;7.70;99.90;;;;;;5030051;28;20460;-68
2022/09/21 07:28:39;;;;;;;13.00;11.60;;;7.70;99.90;;;;;;5030356;28;20449;-67
2022/09/21 07:31:08;;;;;;;13.77;11.17;;;7.80;99.90;;;;;;5030113;28;20449;-67
2022/09/21 07:33:36;;;;;;;12.80;11.40;;;7.90;99.90;;;;;;5029788;28;20476;-68
2022/09/21 07:36:08;;;;;;;18.00;12.90;;;7.90;99.90;;;;;;5030086;28;20899;-67
2022/09/21 07:38:36;;;;;;;14.70;11.57;;;7.90;99.90;;;;;;5030195;28;20480;-65
2022/09/21 07:41:03;;;;;;;16.77;11.57;;;8.00;99.90;;;;;;5029868;28;20459;-66
2022/09/21 07:43:30;;;;;;;14.83;11.30;;;8.10;99.90;;;;;;5029574;28;20469;-68
2022/09/21 07:45:56;;;;;;;12.70;11.37;;;8.20;99.90;;;;;;5030222;28;20448;-66
2022/09/21 07:48:25;;;;;;;18.10;12.37;;;8.20;99.90;;;;;;5029992;28;20955;-66
2022/09/21 07:50:51;;;;;;;12.67;11.37;;;8.30;99.90;;;;;;5030090;28;20444;-66
2022/09/21 07:53:18;;;;;;;15.03;11.50;;;8.40;99.90;;;;;;5029589;28;20963;-66
2022/09/21 07:55:45;;;;;;;16.17;10.93;;;8.50;99.90;;;;;;5031096;28;20946;-66
2022/09/21 08:00:56;;;;;;;14.63;10.93;;;8.70;99.90;;;;;;5033613;28;20980;-66
2022/09/21 08:03:24;;;;;;;14.48;11.88;;;8.90;99.90;;;;;;5032144;28;20452;-67
2022/09/21 08:05:51;;;;;;;12.43;11.13;;;9.00;99.90;;;;;;5033624;28;20230;-67
2022/09/21 08:08:18;;;;;;;13.13;10.57;;;9.10;99.90;;;;;;5033338;28;20441;-67
2022/09/21 08:10:45;;;;;;;12.50;10.30;;;9.20;99.90;;;;;;5033383;28;20448;-67
2022/09/21 08:13:12;;;;;;;15.97;9.50;;;9.40;99.90;;;;;;5032757;28;20473;-67
2022/09/21 08:15:38;;;;;;;10.40;9.33;;;9.50;99.90;;;;;;5033340;28;20483;-68
2022/09/21 08:18:07;;;;;;;11.23;9.17;;;9.60;99.90;;;;;;5033074;28;20810;-67
2022/09/21 08:20:35;;;;;;;10.27;8.60;;;9.70;99.90;;;;;;5033373;28;20449;-66
2022/09/21 08:23:02;;;;;;;10.50;8.47;;;9.70;99.90;;;;;;5032634;28;20469;-67
2022/09/21 08:25:29;;;;;;;9.80;8.73;;;9.80;99.90;;;;;;5032866;28;21086;-66
2022/09/21 08:27:58;;;;;;;8.80;7.90;;;9.90;99.90;;;;;;5032711;28;20476;-68
2022/09/21 08:30:26;;;;;;;11.03;9.23;;;10.00;99.90;;;;;;5033071;28;20452;-67
2022/09/21 08:32:54;;;;;;;10.33;7.23;;;10.20;99.90;;;;;;5032402;28;20480;-67
2022/09/21 08:35:21;;;;;;;11.00;7.57;;;10.30;99.90;;;;;;5032925;28;20456;-67
2022/09/21 08:37:53;;;;;;;8.83;7.63;;;10.30;99.90;;;;;;5032731;28;20471;-68
2022/09/21 08:40:20;;;;;;;11.97;9.30;;;10.50;99.90;;;;;;5032599;28;20495;-67
2022/09/21 08:42:55;;;;;;;12.33;7.17;;;10.60;99.90;;;;;;5032293;28;21009;-67
2022/09/21 08:45:34;;;;;;;8.33;7.53;;;10.80;99.90;;;;;;5032701;28;20539;-68
2022/09/21 08:48:05;;;;;;;8.63;7.60;;;11.00;99.90;;;;;;5032636;28;20459;-66
2022/09/21 08:50:37;;;;;;;10.37;9.37;;;11.20;99.90;;;;;;5032606;28;20448;-67
2022/09/21 08:53:10;;;;;;;12.00;6.63;;;11.30;99.90;;;;;;5032365;28;20461;-67
2022/09/21 08:55:37;;;;;;;7.00;6.30;;;11.40;99.90;;;;;;5032791;28;20459;-66
2022/09/21 08:58:06;;;;;;;8.00;6.43;;;11.40;99.90;;;;;;5032507;28;20543;-67
2022/09/21 09:00:39;;;;;;;9.73;6.80;;;11.60;99.90;;;;;;5032277;28;20484;-66
2022/09/21 09:03:32;;;;;;;6.90;6.00;;;12.00;99.90;;;;;;5031982;28;20860;-66
2022/09/21 09:06:03;;;;;;;8.73;7.30;;;12.30;99.90;;;;;;5032123;28;20449;-69
2022/09/21 09:09:05;;;;;;;7.00;6.40;;;12.70;99.90;;;;;;5032201;28;20449;-69
2022/09/21 09:11:43;;;;;;;5.77;5.37;;;13.10;99.90;;;;;;4964159;28;20926;-67
2022/09/21 09:14:42;;;;;;;6.90;5.30;;;13.30;99.90;;;;;;5031853;28;20475;-68
2022/09/21 09:17:27;;;;;;;5.47;4.93;;;13.50;99.90;;;;;;5016563;28;20820;-67
2022/09/21 09:19:58;;;;;;;7.93;5.73;;;13.80;99.90;;;;;;5031843;28;20487;-66
2022/09/21 09:22:30;;;;;;;6.70;6.10;;;14.30;99.90;;;;;;5031774;28;20476;-67
2022/09/21 09:25:03;;;;;;;5.30;4.80;;;14.70;99.90;;;;;;5032271;28;20451;-67
2022/09/21 09:27:33;;;;;;;4.70;4.30;;;15.10;99.90;;;;;;5031908;28;20515;-67
2022/09/21 09:30:04;;;;;;;5.20;4.23;;;15.50;99.90;;;;;;5032054;28;20444;-68
2022/09/21 09:32:38;;;;;;;7.53;4.47;;;16.00;99.90;;;;;;5031368;28;20465;-67
2022/09/21 09:35:16;;;;;;;4.43;4.03;;;16.10;99.90;;;;;;5032019;28;20827;-67
2022/09/21 09:37:45;;;;;;;3.90;3.47;;;16.20;99.90;;;;;;5032012;28;20810;-67
2022/09/21 09:40:16;;;;;;;4.13;3.57;;;16.40;99.90;;;;;;5031595;28;20491;-66
2022/09/21 09:42:51;;;;;;;4.03;3.63;;;16.70;99.90;;;;;;5031335;28;20958;-67
2022/09/21 09:45:44;;;;;;;4.50;4.10;;;16.90;99.90;;;;;;5032034;28;20444;-66
2022/09/21 09:48:25;;;;;;;6.03;4.50;;;17.40;99.90;;;;;;5031885;28;20452;-67
2022/09/21 09:50:53;;;;;;;3.93;3.53;;;17.20;99.90;;;;;;5031817;28;20444;-67
2022/09/21 09:53:22;;;;;;;4.47;3.73;;;17.00;99.90;;;;;;5031105;28;20551;-67
2022/09/21 09:55:51;;;;;;;4.73;4.23;;;16.80;99.90;;;;;;5031633;28;20452;-67
2022/09/21 09:58:20;;;;;;;5.83;4.73;;;16.90;99.90;;;;;;5031392;28;20467;-67
2022/09/21 10:00:51;;;;;;;5.80;3.83;;;16.60;99.90;;;;;;5031264;28;20481;-66
2022/09/21 10:03:20;;;;;;;7.07;4.27;;;16.60;99.90;;;;;;5030834;28;20468;-67
2022/09/21 10:05:47;;;;;;;4.27;3.80;;;16.90;99.90;;;;;;5031094;28;20483;-66
2022/09/21 10:08:42;;;;;;;4.33;3.60;;;16.90;99.90;;;;;;5031306;28;20445;-68
2022/09/21 10:11:13;;;;;;;4.43;3.97;;;16.60;99.90;;;;;;5013770;28;21126;-67
2022/09/21 10:13:41;;;;;;;4.90;4.40;;;16.00;99.90;;;;;;5030824;28;20480;-67
2022/09/21 10:16:14;;;;;;;3.60;3.10;;;16.00;99.90;;;;;;5030861;28;20453;-68
2022/09/21 10:18:46;;;;;;;3.83;3.07;;;16.50;99.90;;;;;;5030782;28;20452;-68
2022/09/21 10:21:18;;;;;;;4.10;3.30;;;16.90;99.90;;;;;;5031372;28;20453;-67
2022/09/21 10:23:48;;;;;;;3.90;3.50;;;17.30;99.90;;;;;;5030720;28;20472;-66
2022/09/21 10:26:17;;;;;;;3.13;2.87;;;17.60;99.90;;;;;;5030950;28;20875;-67
2022/09/21 10:28:56;;;;;;;6.73;3.37;;;18.10;99.90;;;;;;5030722;28;20456;-66
2022/09/21 10:31:25;;;;;;;4.73;2.90;;;17.70;99.90;;;;;;5030988;28;20449;-66
2022/09/21 10:33:55;;;;;;;3.43;2.40;;;18.10;99.90;;;;;;5030244;28;20472;-68
2022/09/21 10:36:27;;;;;;;3.90;2.57;;;18.20;99.90;;;;;;5030675;28;20444;-67
2022/09/21 10:38:54;;;;;;;3.13;2.20;;;17.40;99.90;;;;;;5030341;28;20453;-68
2022/09/21 10:41:23;;;;;;;3.70;2.33;;;17.60;99.90;;;;;;5030299;28;20463;-67
2022/09/21 10:43:50;;;;;;;2.40;2.13;;;18.20;99.90;;;;;;5030037;28;20473;-65
2022/09/21 10:46:19;;;;;;;3.03;2.53;;;18.70;99.90;;;;;;5030357;28;20938;-66
2022/09/21 10:48:46;;;;;;;5.70;4.00;;;19.20;99.90;;;;;;5030406;28;20471;-67
2022/09/21 10:51:27;;;;;;;4.83;2.20;;;19.10;99.90;;;;;;5030377;28;20448;-66
2022/09/21 10:53:54;;;;;;;3.30;2.10;;;19.30;99.90;;;;;;5029911;28;20469;-66
2022/09/21 10:56:22;;;;;;;2.37;1.70;;;18.90;99.90;;;;;;5030377;28;20457;-66
2022/09/21 10:59:12;;;;;;;4.03;2.00;;;18.40;99.90;;;;;;5029910;28;20444;-67
2022/09/21 11:01:45;;;;;;;2.30;1.50;;;18.40;99.90;;;;;;5029875;28;20448;-66
2022/09/21 11:04:15;;;;;;;2.27;1.63;;;18.00;99.90;;;;;;5029957;28;20480;-65
2022/09/21 11:06:46;;;;;;;1.97;1.57;;;18.40;99.90;;;;;;5030281;28;20445;-67
2022/09/21 11:09:19;;;;;;;2.93;2.53;;;19.20;99.90;;;;;;5030146;28;20989;-66
2022/09/21 11:11:53;;;;;;;2.47;1.20;;;19.40;98.00;;;;;;5029832;28;20460;-66
2022/09/21 11:14:34;;;;;;;1.70;1.20;;;19.80;99.90;;;;;;5029849;28;20922;-66
2022/09/21 11:17:08;;;;;;;1.83;1.30;;;21.00;97.50;;;;;;5030233;28;20459;-65
2022/09/21 11:19:39;;;;;;;1.67;1.33;;;22.00;97.40;;;;;;5029954;28;20480;-69
2022/09/21 11:22:11;;;;;;;1.50;1.20;;;23.00;95.20;;;;;;5029719;28;20452;-68
2022/09/21 11:24:48;;;;;;;2.20;0.93;;;22.90;89.20;;;;;;5029872;28;20452;-69
2022/09/21 11:27:21;;;;;;;1.20;0.93;;;22.30;92.50;;;;;;5029966;28;20480;-65
2022/09/21 11:29:58;;;;;;;1.30;0.90;;;21.70;92.60;;;;;;5029594;28;20449;-66
2022/09/21 11:32:40;;;;;;;1.80;1.00;;;21.30;94.80;;;;;;5029517;28;20475;-69
2022/09/21 11:35:23;;;;;;;2.60;1.20;;;22.30;92.90;;;;;;5029712;28;20502;-68
2022/09/21 11:37:58;;;;;;;2.20;0.73;;;22.60;88.10;;;;;;5029811;28;20449;-66
2022/09/21 11:40:36;;;;;;;2.43;1.10;;;22.70;92.20;;;;;;5029833;28;20495;-68
2022/09/21 11:43:19;;;;;;;2.10;1.03;;;23.40;85.80;;;;;;5029083;28;20481;-66
2022/09/21 11:45:57;;;;;;;2.50;0.80;;;21.80;86.80;;;;;;5029754;28;20444;-70
2022/09/21 11:48:32;;;;;;;1.50;0.77;;;21.50;90.30;;;;;;5030147;28;20455;-70
2022/09/21 11:51:11;;;;;;;3.93;0.80;;;21.40;90.70;;;;;;5029588;28;20448;-67
2022/09/21 11:53:52;;;;;;;1.90;0.90;;;22.20;91.80;;;;;;5044108;28;20464;-69
2022/09/21 11:56:33;;;;;;;1.40;0.90;;;23.10;90.00;;;;;;5035302;28;20453;-67
2022/09/21 11:59:18;;;;;;;2.00;1.60;;;24.20;88.30;;;;;;5029763;28;20796;-65
2022/09/21 12:02:00;;;;;;;1.60;0.80;;;25.90;83.90;;;;;;5024758;28;20535;-65
2022/09/21 12:04:41;;;;;;;2.20;0.93;;;27.40;78.70;;;;;;5029220;28;20456;-68
2022/09/21 12:07:23;;;;;;;1.50;0.83;;;27.50;72.00;;;;;;5028194;28;20460;-65
2022/09/21 12:10:30;;;;;;;2.57;1.07;;;28.20;72.50;;;;;;5024310;28;20445;-67
2022/09/21 12:13:03;;;;;;;2.50;1.10;;;28.90;69.10;;;;;;5025392;28;21012;-67
2022/09/21 12:15:39;;;;;;;2.10;1.07;;;29.30;61.50;;;;;;5028727;28;20444;-65
2022/09/21 12:18:13;;;;;;;1.50;0.80;;;29.00;60.80;;;;;;5028922;28;20445;-65
2022/09/21 12:20:48;;;;;;;1.80;0.80;;;28.20;60.80;;;;;;5028915;28;20492;-66
2022/09/21 12:23:21;;;;;;;1.40;1.00;;;28.50;59.20;;;;;;5028968;28;21142;-65
2022/09/21 12:25:52;;;;;;;1.40;0.93;;;28.40;59.80;;;;;;5030980;28;20961;-65
2022/09/21 12:28:24;;;;;;;2.17;1.03;;;28.40;63.90;;;;;;5023524;28;20448;-66
2022/09/21 12:30:56;;;;;;;1.50;1.07;;;29.70;61.70;;;;;;5029948;28;20449;-66
2022/09/21 12:33:32;;;;;;;1.87;0.77;;;30.10;57.60;;;;;;5020605;28;20480;-64
2022/09/21 12:36:03;;;;;;;2.10;1.10;;;30.50;54.40;;;;;;5030614;28;20429;-65
2022/09/21 12:38:35;;;;;;;2.77;1.00;;;31.10;55.70;;;;;;5031282;28;20907;-68
2022/09/21 12:41:11;;;;;;;1.47;0.87;;;31.20;56.30;;;;;;5030726;28;20492;-67
2022/09/21 12:43:43;;;;;;;1.73;1.13;;;31.70;53.60;;;;;;5033480;28;20467;-68
2022/09/21 12:46:16;;;;;;;1.97;0.90;;;31.30;54.20;;;;;;5040755;28;20444;-67
2022/09/21 12:48:44;;;;;;;2.20;1.10;;;31.70;54.10;;;;;;5043963;28;20440;-66
2022/09/21 12:51:16;;;;;;;2.97;1.07;;;32.30;54.00;;;;;;5044880;28;20487;-68
2022/09/21 12:53:46;;;;;;;1.37;0.80;;;31.80;52.90;;;;;;5037105;28;20460;-68
2022/09/21 12:56:25;;;;;;;1.30;0.83;;;31.20;50.20;;;;;;5043315;28;20543;-67
2022/09/21 12:59:09;;;;;;;1.40;0.80;;;29.60;51.80;;;;;;5042886;28;20424;-65
2022/09/21 13:01:43;;;;;;;1.83;0.80;;;29.10;54.70;;;;;;5040444;28;20472;-66
2022/09/21 13:04:33;;;;;;;2.90;1.03;;;28.20;54.10;;;;;;5038194;28;20550;-68
2022/09/21 13:07:38;;;;;;;1.50;1.13;;;26.20;56.50;;;;;;5039653;28;20469;-68
2022/09/21 13:10:16;;;;;;;1.90;0.93;;;26.10;59.20;;;;;;5017114;28;20455;-65
2022/09/21 13:12:45;;;;;;;2.00;0.70;;;27.40;58.10;;;;;;5032380;28;20472;-66